Time;durP1;ratioP1;P1;durP2;ratioP2;P2;SDS_P1;SDS_P2;PMS_P1;PMS_P2;Temp;Humidity;BMP_temperature;BMP_pressure;BME280_temperature;BME280_humidity;BME280_pressure;Samples;Min_cycle;Max_cycle;Signal;HPM_P1;HPM_P2
2022/01/05 00:01:35;;;;;;;7.45;1.77;;;5.90;99.90;;;5.55;96.93;99435.38;5144024;28;20047;-72
2022/01/05 00:04:07;;;;;;;3.22;1.73;;;5.90;99.90;;;5.59;97.39;99432.03;5143749;28;20050;-72
2022/01/05 00:06:40;;;;;;;5.22;2.10;;;5.90;99.90;;;5.60;97.62;99432.91;5154505;28;20077;-72
2022/01/05 00:09:12;;;;;;;5.20;1.60;;;5.90;99.90;;;5.60;97.69;99441.53;5163823;28;20060;-72
2022/01/05 00:11:45;;;;;;;5.10;1.83;;;5.90;99.90;;;5.54;97.52;99438.78;5163829;28;20054;-73
2022/01/05 00:14:17;;;;;;;4.60;1.67;;;5.90;99.90;;;5.43;97.37;99450.47;5163688;28;20142;-73
2022/01/05 00:16:49;;;;;;;7.82;1.73;;;5.80;99.90;;;5.34;97.64;99460.47;5164198;28;20057;-73
2022/01/05 00:19:21;;;;;;;2.45;1.35;;;5.80;99.90;;;5.15;97.54;99458.94;5164140;28;20491;-72
2022/01/05 00:21:54;;;;;;;2.83;1.60;;;5.70;99.90;;;5.01;97.96;99458.47;5164072;28;20050;-72
2022/01/05 00:24:26;;;;;;;3.63;1.70;;;5.60;99.90;;;4.94;98.91;99459.06;5165728;28;20050;-73
2022/01/05 00:26:59;;;;;;;4.63;1.50;;;5.50;99.90;;;4.94;99.58;99463.34;5168129;28;20491;-73
2022/01/05 00:29:31;;;;;;;2.60;1.30;;;5.40;99.90;;;4.87;99.02;99473.47;5167591;28;20050;-71
2022/01/05 00:32:03;;;;;;;3.90;1.02;;;5.40;99.90;;;4.78;99.57;99482.59;5167971;28;20042;-71
2022/01/05 00:34:36;;;;;;;3.17;1.60;;;5.30;99.90;;;4.72;99.78;99477.19;5167900;28;20058;-71
2022/01/05 00:37:10;;;;;;;1.63;1.38;;;5.30;99.90;;;4.66;99.54;99476.97;5167842;28;20565;-71
2022/01/05 00:39:42;;;;;;;3.67;1.70;;;5.20;99.90;;;4.61;99.95;99485.41;5168183;28;20487;-71
2022/01/05 00:42:14;;;;;;;4.93;1.65;;;5.20;99.90;;;4.59;99.64;99486.19;5167501;28;20050;-71
2022/01/05 00:44:46;;;;;;;3.85;1.17;;;5.20;99.90;;;4.54;100.00;99483.41;5167542;28;20050;-71
2022/01/05 00:47:18;;;;;;;3.45;1.80;;;5.10;99.90;;;4.51;99.41;99483.31;5167598;28;20419;-71
2022/01/05 00:49:50;;;;;;;3.63;1.67;;;5.10;99.90;;;4.54;99.58;99487.69;5167267;28;20050;-71
2022/01/05 00:52:24;;;;;;;3.25;1.50;;;5.00;99.90;;;4.53;99.82;99481.66;5167852;28;20623;-71
2022/01/05 00:54:56;;;;;;;2.10;1.13;;;5.00;99.90;;;4.49;100.00;99487.53;5167447;28;20501;-71
2022/01/05 00:57:28;;;;;;;2.97;1.40;;;5.00;99.90;;;4.49;100.00;99479.78;5167206;28;20051;-71
2022/01/05 01:00:00;;;;;;;2.05;1.48;;;5.00;99.90;;;4.43;99.15;99496.72;5167468;28;20046;-71
2022/01/05 01:02:32;;;;;;;4.40;1.30;;;4.90;99.90;;;4.42;99.64;99498.44;5167464;28;20514;-71
2022/01/05 01:05:05;;;;;;;2.22;1.48;;;5.00;99.90;;;4.40;99.89;99504.38;5167323;28;20050;-71
2022/01/05 01:07:38;;;;;;;3.47;1.45;;;4.90;99.90;;;4.37;99.87;99510.31;5167401;28;20053;-71
2022/01/05 01:10:10;;;;;;;3.50;1.92;;;4.90;99.90;;;4.38;100.00;99519.78;5167116;28;20060;-71
2022/01/05 01:12:43;;;;;;;4.00;1.60;;;4.90;99.90;;;4.36;100.00;99513.66;5167133;28;20058;-71
2022/01/05 01:15:15;;;;;;;2.05;1.38;;;4.90;99.90;;;4.37;100.00;99525.78;5167000;28;20051;-71
2022/01/05 01:17:47;;;;;;;2.03;1.30;;;4.90;99.90;;;4.31;99.71;99530.69;5167133;28;20050;-71
2022/01/05 01:20:20;;;;;;;2.50;1.38;;;4.90;99.90;;;4.27;99.88;99532.25;5166842;28;20042;-71
2022/01/05 01:22:53;;;;;;;1.30;1.20;;;4.80;99.90;;;4.26;99.99;99532.22;5167153;28;20054;-71
2022/01/05 01:25:25;;;;;;;2.38;1.40;;;4.80;99.90;;;4.31;99.90;99546.19;5167139;28;20043;-71
2022/01/05 01:27:57;;;;;;;3.15;1.50;;;4.80;99.90;;;4.30;99.81;99540.13;5167071;28;20046;-71
2022/01/05 01:30:31;;;;;;;2.45;1.52;;;4.70;99.90;;;4.28;99.12;99546.03;5166831;28;20093;-71
2022/01/05 01:33:03;;;;;;;4.25;1.60;;;4.70;99.90;;;4.29;99.50;99527.16;5166810;28;20101;-71
2022/01/05 01:35:35;;;;;;;3.70;1.70;;;4.70;99.90;;;4.36;99.51;99529.16;5165364;28;20049;-71
2022/01/05 01:38:09;;;;;;;3.45;1.52;;;4.70;99.90;;;4.38;99.66;99522.38;5166437;28;20158;-71
2022/01/05 01:40:41;;;;;;;2.85;1.60;;;4.70;99.90;;;4.42;98.79;99526.81;5166529;28;20062;-71
2022/01/05 01:43:13;;;;;;;4.85;1.70;;;4.80;99.90;;;4.42;98.90;99525.94;5166629;28;20050;-71
2022/01/05 01:45:45;;;;;;;5.43;2.13;;;4.70;99.90;;;4.39;98.64;99529.28;5166813;28;20046;-71
2022/01/05 01:48:17;;;;;;;3.30;2.03;;;4.80;99.90;;;4.38;98.75;99532.69;5166364;28;20389;-71
2022/01/05 01:50:49;;;;;;;3.63;1.90;;;4.70;99.90;;;4.36;98.80;99530.03;5166239;28;20053;-71
2022/01/05 01:53:23;;;;;;;5.43;1.80;;;4.70;99.90;;;4.39;98.34;99534.44;5166489;28;20056;-71
2022/01/05 01:55:59;;;;;;;3.70;1.50;;;4.70;99.90;;;4.38;98.65;99532.69;5166373;28;20050;-71
2022/01/05 01:58:35;;;;;;;7.78;2.00;;;4.70;99.90;;;4.38;98.34;99539.56;5166034;28;20046;-71
2022/01/05 02:01:07;;;;;;;4.25;1.75;;;4.70;99.90;;;4.40;98.57;99536.19;5165792;28;20060;-71
2022/01/05 02:03:39;;;;;;;4.63;1.98;;;4.60;99.90;;;4.42;98.19;99536.25;5165803;28;20050;-72
2022/01/05 02:06:11;;;;;;;4.75;1.85;;;4.70;99.90;;;4.38;98.53;99536.97;5166352;28;20056;-71
2022/01/05 02:08:44;;;;;;;3.00;1.58;;;4.70;99.90;;;4.40;98.66;99536.19;5165905;28;20046;-71
2022/01/05 02:11:18;;;;;;;2.88;1.40;;;4.60;99.90;;;4.44;98.41;99538.09;5165751;28;20084;-71
2022/01/05 02:13:50;;;;;;;5.05;2.22;;;4.70;99.90;;;4.46;98.78;99538.16;5166312;28;20500;-71
2022/01/05 02:16:29;;;;;;;7.78;2.15;;;4.70;99.90;;;4.45;98.72;99542.44;5166026;28;20050;-71
2022/01/05 02:19:02;;;;;;;4.82;2.10;;;4.70;99.90;;;4.48;98.67;99550.28;5165897;28;20050;-71
2022/01/05 02:21:38;;;;;;;7.85;2.20;;;4.70;99.90;;;4.52;99.29;99552.16;5165933;28;20061;-71
2022/01/05 02:24:11;;;;;;;5.15;2.05;;;4.80;99.90;;;4.57;99.21;99555.81;5165647;28;20066;-71
2022/01/05 02:26:43;;;;;;;5.03;2.22;;;4.80;99.90;;;4.60;99.35;99557.63;5165779;28;20112;-71
2022/01/05 02:29:15;;;;;;;8.75;2.50;;;4.80;99.90;;;4.67;99.53;99556.16;5165658;28;20077;-71
2022/01/05 02:31:47;;;;;;;5.25;2.50;;;4.90;99.90;;;4.62;98.49;99567.16;5166038;28;20105;-71
2022/01/05 02:34:19;;;;;;;7.25;2.60;;;4.90;99.90;;;4.65;99.11;99568.13;5165390;28;20066;-71
2022/01/05 02:36:53;;;;;;;8.75;3.20;;;4.90;99.90;;;4.62;98.04;99568.88;5165928;28;20046;-71
2022/01/05 02:39:25;;;;;;;8.25;3.30;;;4.90;99.90;;;4.53;97.88;99574.56;5165511;28;20052;-71
2022/01/05 02:41:57;;;;;;;11.57;3.60;;;4.80;99.90;;;4.47;97.06;99582.06;5165127;28;20054;-71
2022/01/05 02:44:29;;;;;;;8.73;3.97;;;4.80;99.90;;;4.48;97.83;99590.69;5164920;28;20062;-71
2022/01/05 02:47:01;;;;;;;7.45;3.30;;;4.80;99.90;;;4.49;97.81;99602.75;5165072;28;20046;-71
2022/01/05 02:49:33;;;;;;;10.05;4.22;;;4.80;99.90;;;4.49;97.91;99607.94;5164888;28;20054;-71
2022/01/05 02:52:07;;;;;;;13.77;4.10;;;4.80;99.90;;;4.52;98.23;99610.66;5165094;28;20053;-71
2022/01/05 02:54:39;;;;;;;9.55;3.88;;;4.80;99.90;;;4.51;97.72;99614.94;5165044;28;20046;-71
2022/01/05 02:57:11;;;;;;;10.73;3.80;;;4.80;99.90;;;4.53;98.04;99615.84;5165555;28;20053;-71
2022/01/05 02:59:43;;;;;;;6.50;3.45;;;4.80;99.90;;;4.52;97.97;99616.69;5165258;28;20066;-71
2022/01/05 03:02:16;;;;;;;10.20;4.45;;;4.80;99.90;;;4.47;98.09;99631.09;5165543;28;20143;-72
2022/01/05 03:04:48;;;;;;;11.95;3.65;;;4.80;99.90;;;4.47;98.74;99635.38;5165300;28;20046;-71
2022/01/05 03:07:21;;;;;;;7.47;3.85;;;4.70;99.90;;;4.45;97.94;99631.88;5165370;28;20376;-71
2022/01/05 03:09:53;;;;;;;8.18;3.28;;;4.80;99.90;;;4.43;97.54;99642.09;5165528;28;20050;-71
2022/01/05 03:12:25;;;;;;;14.00;4.55;;;4.70;99.90;;;4.34;96.95;99649.47;5165393;28;20385;-71
2022/01/05 03:14:57;;;;;;;10.13;4.03;;;4.70;99.90;;;4.27;97.21;99657.78;5165016;28;20058;-71
2022/01/05 03:17:29;;;;;;;7.40;3.38;;;4.60;99.90;;;4.22;97.13;99649.84;5165424;28;20061;-71
2022/01/05 03:20:02;;;;;;;6.78;3.42;;;4.60;99.90;;;4.16;97.70;99649.59;5165127;28;20046;-71
2022/01/05 03:22:36;;;;;;;7.80;3.60;;;4.50;99.90;;;4.14;97.40;99650.34;5165444;28;20795;-71
2022/01/05 03:25:15;;;;;;;7.15;3.05;;;4.50;99.90;;;4.11;97.76;99653.69;5165007;28;20406;-71
2022/01/05 03:27:50;;;;;;;8.50;2.88;;;4.50;99.90;;;4.07;97.50;99650.09;5165137;28;20407;-71
2022/01/05 03:30:26;;;;;;;7.85;2.65;;;4.40;99.90;;;4.06;96.73;99653.50;5164761;28;20137;-71
2022/01/05 03:35:48;;;;;;;8.23;2.85;;;4.40;99.90;;;3.92;95.60;99662.34;5164320;28;19933;-71
2022/01/05 03:38:23;;;;;;;11.82;3.03;;;4.30;99.90;;;3.88;96.10;99668.16;5164966;28;20050;-71
2022/01/05 03:40:55;;;;;;;5.65;2.67;;;4.30;99.90;;;3.90;96.51;99678.53;5164996;28;20517;-71
2022/01/05 03:43:27;;;;;;;7.38;2.95;;;4.30;99.90;;;3.93;96.81;99682.16;5165160;28;20058;-71
2022/01/05 03:46:00;;;;;;;9.20;2.95;;;4.30;99.90;;;3.96;96.08;99686.53;5164688;28;20054;-71
2022/01/05 03:48:32;;;;;;;6.45;3.15;;;4.30;99.90;;;3.94;96.26;99689.06;5164352;28;20046;-71
2022/01/05 03:51:04;;;;;;;13.05;3.30;;;4.30;99.90;;;3.99;96.72;99697.88;5164549;28;20057;-71
2022/01/05 03:53:37;;;;;;;13.38;3.90;;;4.30;99.90;;;4.00;96.51;99696.19;5163993;28;20046;-71
2022/01/05 03:56:09;;;;;;;12.40;3.40;;;4.40;99.90;;;4.04;96.41;99701.56;5164058;28;20050;-71
2022/01/05 03:58:41;;;;;;;10.40;3.42;;;4.40;99.90;;;4.06;96.26;99706.75;5163607;28;20388;-71
2022/01/05 04:01:13;;;;;;;10.55;3.65;;;4.30;99.90;;;4.07;96.11;99703.38;5164409;28;20068;-71
2022/01/05 04:03:45;;;;;;;8.63;2.95;;;4.40;99.90;;;4.09;95.81;99709.47;5164262;28;20407;-71
2022/01/05 04:06:17;;;;;;;6.82;3.03;;;4.40;99.90;;;4.07;95.46;99714.56;5163968;28;20061;-71
2022/01/05 04:08:50;;;;;;;7.97;3.42;;;4.40;99.90;;;4.01;95.56;99714.28;5164018;28;20046;-71
2022/01/05 04:11:22;;;;;;;9.60;3.45;;;4.40;99.90;;;4.01;95.85;99727.19;5164206;28;20042;-71
2022/01/05 04:13:54;;;;;;;9.43;3.67;;;4.30;99.90;;;4.01;95.39;99739.19;5163727;28;20050;-71
2022/01/05 04:16:26;;;;;;;11.05;3.40;;;4.30;99.90;;;4.00;95.71;99730.59;5164178;28;20054;-71
2022/01/05 04:18:58;;;;;;;12.27;3.33;;;4.30;99.90;;;4.00;95.20;99740.91;5164057;28;20399;-71
2022/01/05 04:21:30;;;;;;;8.55;2.72;;;4.30;99.90;;;4.00;95.51;99746.06;5164093;28;20050;-71
2022/01/05 04:24:04;;;;;;;8.98;2.63;;;4.30;99.90;;;4.00;95.48;99758.94;5163945;28;20057;-71
2022/01/05 04:26:36;;;;;;;8.30;3.00;;;4.30;99.90;;;3.95;94.99;99760.44;5163995;28;20050;-71
2022/01/05 04:29:08;;;;;;;9.52;3.17;;;4.30;99.90;;;3.93;94.69;99753.47;5163963;28;20054;-71
2022/01/05 04:31:40;;;;;;;12.27;3.13;;;4.20;99.90;;;3.83;93.67;99754.72;5164258;28;20491;-71
2022/01/05 04:34:13;;;;;;;8.73;2.92;;;4.20;99.90;;;3.85;93.53;99760.84;5163517;28;20054;-71
2022/01/05 04:36:45;;;;;;;8.20;3.05;;;4.20;99.90;;;3.73;93.09;99757.72;5163607;28;20061;-71
2022/01/05 04:39:18;;;;;;;6.25;2.50;;;4.10;99.90;;;3.67;92.97;99775.47;5163893;28;20395;-71
2022/01/05 04:41:50;;;;;;;6.28;2.45;;;4.10;99.90;;;3.63;93.15;99778.72;5163984;28;20042;-71
2022/01/05 04:44:22;;;;;;;6.25;2.58;;;4.00;99.90;;;3.62;93.04;99784.69;5163546;28;20058;-71
2022/01/05 04:46:54;;;;;;;10.02;2.28;;;4.00;99.90;;;3.60;92.47;99779.47;5163905;28;20050;-71
2022/01/05 04:49:26;;;;;;;10.85;2.63;;;4.00;99.90;;;3.61;92.59;99781.22;5163502;28;20411;-71
2022/01/05 04:51:58;;;;;;;5.57;2.20;;;3.90;99.90;;;3.63;92.04;99782.19;5163452;28;20050;-71
2022/01/05 04:54:31;;;;;;;9.95;2.40;;;3.90;99.90;;;3.59;92.29;99794.88;5163293;28;20057;-71
2022/01/05 04:57:05;;;;;;;7.78;2.65;;;3.90;99.90;;;3.62;91.96;99797.56;5163782;28;20056;-71
2022/01/05 04:59:37;;;;;;;9.15;2.35;;;3.90;99.90;;;3.60;91.50;99800.09;5163472;28;20142;-71
2022/01/05 05:02:11;;;;;;;8.15;2.05;;;3.90;99.90;;;3.63;91.86;99804.50;5163663;28;20083;-71
2022/01/05 05:04:43;;;;;;;4.53;2.20;;;3.90;99.90;;;3.55;92.00;99796.41;5163529;28;20077;-71
2022/01/05 05:07:15;;;;;;;7.80;2.92;;;3.90;99.90;;;3.54;92.45;99805.84;5163257;28;20058;-71
2022/01/05 05:09:48;;;;;;;5.30;1.98;;;3.90;99.90;;;3.59;92.71;99805.19;5164214;28;20047;-71
2022/01/05 05:12:20;;;;;;;11.35;2.47;;;3.90;99.90;;;3.57;92.14;99806.78;5167262;28;20046;-71
2022/01/05 05:14:52;;;;;;;12.02;2.50;;;3.90;99.90;;;3.56;91.85;99817.91;5166767;28;20065;-71
2022/01/05 05:17:24;;;;;;;9.00;2.65;;;3.90;99.90;;;3.52;92.09;99812.63;5167094;28;20050;-71
2022/01/05 05:19:56;;;;;;;8.63;2.85;;;3.90;99.90;;;3.51;92.54;99815.09;5167027;28;20053;-71
2022/01/05 05:22:28;;;;;;;8.07;2.33;;;3.90;99.90;;;3.52;92.44;99815.19;5166761;28;20054;-71
2022/01/05 05:25:01;;;;;;;10.18;2.40;;;3.90;99.90;;;3.56;92.62;99817.91;5166894;28;20381;-71
2022/01/05 05:27:34;;;;;;;9.73;2.60;;;3.90;99.90;;;3.50;91.49;99819.38;5166672;28;20054;-71
2022/01/05 05:30:08;;;;;;;5.57;2.25;;;3.90;99.90;;;3.54;92.26;99821.28;5166866;28;20056;-71
2022/01/05 05:32:40;;;;;;;12.32;2.83;;;3.90;99.90;;;3.53;91.71;99824.69;5166889;28;20061;-71
2022/01/05 05:35:12;;;;;;;7.78;2.30;;;3.90;99.90;;;3.52;91.57;99827.16;5166426;28;20068;-71
2022/01/05 05:37:44;;;;;;;10.27;2.50;;;3.90;99.90;;;3.51;91.60;99822.81;5166828;28;20056;-71
2022/01/05 05:40:17;;;;;;;10.95;2.20;;;3.80;99.90;;;3.50;91.60;99823.66;5166169;28;20053;-71
2022/01/05 05:42:50;;;;;;;8.65;2.03;;;3.90;99.90;;;3.48;91.71;99836.47;5166331;28;20057;-71
2022/01/05 05:45:22;;;;;;;7.60;2.33;;;3.80;99.90;;;3.48;91.97;99826.16;5166499;28;20050;-71
2022/01/05 05:47:54;;;;;;;7.28;2.15;;;3.80;99.90;;;3.46;91.93;99832.06;5232164;22;20052;-82
2022/01/05 05:50:26;;;;;;;5.82;2.35;;;3.80;99.90;;;3.47;91.79;99824.41;5194773;22;20448;-68
2022/01/05 05:52:58;;;;;;;7.28;2.05;;;3.80;99.90;;;3.46;92.05;99832.94;5178486;28;20060;-68
2022/01/05 05:55:33;;;;;;;8.73;1.90;;;3.80;99.90;;;3.46;91.73;99843.25;5186315;28;20050;-68
2022/01/05 05:58:05;;;;;;;5.47;2.08;;;3.80;99.90;;;3.45;91.74;99841.44;5186362;28;20053;-68
2022/01/05 06:00:37;;;;;;;3.53;2.00;;;3.80;99.90;;;3.43;91.62;99835.34;5186311;28;20052;-68
2022/01/05 06:03:09;;;;;;;4.78;1.83;;;3.80;99.90;;;3.45;91.85;99846.59;5186556;28;20049;-69
2022/01/05 06:05:41;;;;;;;6.13;1.92;;;3.80;99.90;;;3.48;91.96;99845.88;5186051;28;20132;-68
2022/01/05 06:08:13;;;;;;;11.35;1.90;;;3.80;99.90;;;3.51;91.71;99841.75;5186280;28;20046;-68
2022/01/05 06:10:46;;;;;;;6.68;1.75;;;3.80;99.90;;;3.53;92.00;99850.44;5185857;28;20056;-68
2022/01/05 06:13:18;;;;;;;5.22;1.90;;;3.80;99.90;;;3.53;91.63;99860.75;5186317;28;20050;-68
2022/01/05 06:15:50;;;;;;;5.45;1.73;;;3.90;99.90;;;3.52;91.35;99858.09;5185932;28;20410;-68
2022/01/05 06:18:22;;;;;;;6.60;1.80;;;3.80;99.90;;;3.50;91.21;99854.56;5186072;28;20479;-68
2022/01/05 06:20:54;;;;;;;4.68;1.55;;;3.80;99.90;;;3.50;91.62;99860.59;5185783;28;20530;-68
2022/01/05 06:23:26;;;;;;;4.63;1.50;;;3.80;99.90;;;3.50;91.05;99865.75;5185528;28;20402;-68
2022/01/05 06:26:00;;;;;;;8.98;1.95;;;3.80;99.90;;;3.47;90.87;99860.47;5185660;28;20050;-68
2022/01/05 06:28:32;;;;;;;4.15;1.42;;;3.80;99.90;;;3.45;90.63;99871.50;5185797;28;20050;-68
2022/01/05 06:31:04;;;;;;;6.88;1.92;;;3.80;99.90;;;3.44;90.05;99877.44;5185880;28;20050;-68
2022/01/05 06:33:35;;;;;;;9.45;1.52;;;3.80;99.90;;;3.43;90.54;99871.41;5185531;28;20515;-68
2022/01/05 06:36:07;;;;;;;6.07;1.50;;;3.80;99.90;;;3.46;90.17;99868.13;5185559;28;20049;-68
2022/01/05 06:38:39;;;;;;;8.90;1.27;;;3.80;99.90;;;3.48;89.96;99872.53;5172210;28;20054;-68
2022/01/05 06:41:13;;;;;;;10.77;1.77;;;3.80;99.90;;;3.49;90.17;99876.88;5172926;28;20053;-68
2022/01/05 06:43:45;;;;;;;7.82;1.95;;;3.80;99.90;;;3.46;89.47;99871.59;5177627;28;20064;-68
2022/01/05 06:46:17;;;;;;;3.80;1.23;;;3.80;99.90;;;3.47;89.82;99878.50;5178974;28;20046;-68
2022/01/05 06:48:49;;;;;;;8.70;1.95;;;3.80;99.90;;;3.46;89.54;99884.47;5164483;28;20060;-68
2022/01/05 06:51:21;;;;;;;4.43;2.50;;;3.80;99.90;;;3.51;89.39;99885.53;5164736;28;20495;-68
2022/01/05 06:53:53;;;;;;;9.02;1.60;;;3.80;99.90;;;3.52;89.64;99889.91;5177792;28;20056;-68
2022/01/05 06:56:26;;;;;;;6.20;2.05;;;3.80;99.90;;;3.56;89.44;99901.25;5184366;28;20305;-68
2022/01/05 06:58:58;;;;;;;5.22;1.13;;;3.90;99.90;;;3.60;88.96;99910.03;5180447;28;20056;-69
2022/01/05 07:01:30;;;;;;;9.52;1.75;;;3.90;99.90;;;3.63;88.81;99907.56;5185280;28;20056;-69
2022/01/05 07:04:02;;;;;;;9.00;1.80;;;3.90;99.90;;;3.68;89.49;99906.09;5184772;28;20053;-69
2022/01/05 07:06:34;;;;;;;6.55;2.10;;;3.90;99.90;;;3.73;89.23;99907.22;5185296;28;20505;-69
2022/01/05 07:09:06;;;;;;;9.00;1.60;;;4.00;99.90;;;3.75;89.33;99914.19;5185295;28;20508;-69
2022/01/05 07:11:40;;;;;;;8.35;1.90;;;4.00;99.90;;;3.83;89.23;99918.84;5185188;28;20046;-69
2022/01/05 07:14:12;;;;;;;6.60;1.73;;;4.00;99.90;;;3.86;88.92;99917.31;5185059;28;20054;-69
2022/01/05 07:16:44;;;;;;;4.80;1.35;;;4.10;99.90;;;3.86;88.40;99916.41;5185141;28;20140;-69
2022/01/05 07:19:16;;;;;;;7.70;1.65;;;4.10;99.90;;;3.84;88.46;99929.22;5185108;28;20064;-69
2022/01/05 07:21:49;;;;;;;7.10;1.98;;;4.10;99.90;;;3.91;87.97;99936.47;5185097;28;20478;-69
2022/01/05 07:24:21;;;;;;;11.35;2.25;;;4.10;99.90;;;3.92;87.85;99942.50;5185223;28;20426;-69
2022/01/05 07:26:54;;;;;;;7.45;1.63;;;4.20;99.90;;;3.92;87.97;99938.22;5185003;28;20509;-69
2022/01/05 07:29:26;;;;;;;5.53;1.50;;;4.20;99.90;;;3.95;88.03;99945.22;5184629;28;20083;-67
2022/01/05 07:31:58;;;;;;;5.53;1.83;;;4.20;99.90;;;3.96;88.13;99952.13;5184497;28;20492;-70
2022/01/05 07:34:30;;;;;;;6.25;1.83;;;4.20;99.90;;;3.98;87.71;99950.53;5173808;28;20046;-70
2022/01/05 07:37:02;;;;;;;10.60;2.00;;;4.20;99.90;;;3.99;87.97;99950.59;5169658;28;20056;-70
2022/01/05 07:39:34;;;;;;;8.63;2.72;;;4.30;99.90;;;4.04;87.90;99963.69;5169752;28;20511;-70
2022/01/05 07:42:09;;;;;;;6.63;1.67;;;4.30;99.90;;;4.06;87.74;99962.06;5174798;28;20050;-70
2022/01/05 07:44:41;;;;;;;6.80;1.85;;;4.30;99.90;;;4.08;87.85;99961.31;5179094;28;20621;-70
2022/01/05 07:47:13;;;;;;;8.77;1.65;;;4.30;99.90;;;4.13;87.84;99963.25;5177818;28;20050;-70
2022/01/05 07:49:45;;;;;;;9.15;2.08;;;4.40;99.90;;;4.14;88.11;99970.16;5163622;28;20050;-70
2022/01/05 07:52:17;;;;;;;7.85;2.58;;;4.40;99.90;;;4.16;88.66;99974.56;5165721;28;20042;-70
2022/01/05 07:54:50;;;;;;;12.10;2.60;;;4.40;99.90;;;4.18;88.43;99972.09;5174505;28;20049;-70
2022/01/05 07:57:23;;;;;;;8.35;2.53;;;4.40;99.90;;;4.18;88.05;99979.84;5169347;28;20050;-70
2022/01/05 07:59:55;;;;;;;7.15;2.40;;;4.50;99.90;;;4.23;87.79;99970.59;5170099;28;20042;-70
2022/01/05 08:02:27;;;;;;;9.43;2.85;;;4.50;99.90;;;4.21;88.05;99967.06;5171385;28;20200;-70
2022/01/05 08:04:59;;;;;;;7.63;2.30;;;4.50;99.90;;;4.23;87.96;99970.59;5163878;28;20415;-70
2022/01/05 08:07:31;;;;;;;6.03;1.90;;;4.50;99.90;;;4.26;88.13;99965.59;5164006;28;20050;-70
2022/01/05 08:10:05;;;;;;;11.30;2.67;;;4.50;99.90;;;4.28;87.44;99971.69;5177724;28;20047;-70
2022/01/05 08:12:40;;;;;;;8.63;2.47;;;4.50;99.90;;;4.26;87.29;99970.75;5181250;28;20061;-70
2022/01/05 08:15:14;;;;;;;8.88;2.38;;;4.50;99.90;;;4.24;87.63;99980.13;5175711;28;20053;-70
2022/01/05 08:17:46;;;;;;;6.57;2.35;;;4.50;99.90;;;4.23;87.69;99986.94;5182793;28;20054;-71
2022/01/05 08:20:18;;;;;;;7.80;3.13;;;4.50;99.90;;;4.28;87.68;99992.34;5180566;28;20050;-70
2022/01/05 08:22:50;;;;;;;4.50;2.05;;;4.50;99.90;;;4.34;87.51;99990.03;5175806;28;20574;-70
2022/01/05 08:25:22;;;;;;;13.15;2.78;;;4.50;99.90;;;4.40;87.44;99989.44;5177973;28;20066;-71
2022/01/05 08:27:55;;;;;;;10.68;2.67;;;4.60;99.90;;;4.36;87.69;99986.72;5183949;28;20062;-70
2022/01/05 08:30:32;;;;;;;3.80;2.00;;;4.60;99.90;;;4.41;87.20;99989.50;5173394;28;20409;-70
2022/01/05 08:33:04;;;;;;;11.98;2.33;;;4.60;99.90;;;4.42;86.64;99986.13;5183392;28;20085;-69
2022/01/05 08:35:36;;;;;;;7.65;2.42;;;4.60;99.90;;;4.47;86.98;99988.91;5183422;28;20065;-69
2022/01/05 08:38:09;;;;;;;7.85;2.83;;;4.60;99.90;;;4.47;87.42;100002.69;5184012;28;20050;-69
2022/01/05 08:40:42;;;;;;;7.60;2.60;;;4.70;99.90;;;4.50;87.91;99997.69;5183826;28;20056;-69
2022/01/05 08:43:15;;;;;;;9.85;2.35;;;4.70;99.90;;;4.53;87.06;99990.09;5183718;28;20075;-69
2022/01/05 08:45:48;;;;;;;9.02;2.33;;;4.70;99.90;;;4.57;86.42;99999.75;5186455;28;20410;-69
2022/01/05 08:48:20;;;;;;;6.47;2.10;;;4.70;99.90;;;4.61;86.69;100008.50;5187896;28;20405;-69
2022/01/05 08:50:52;;;;;;;11.25;2.40;;;4.80;99.90;;;4.62;86.18;100007.69;5187658;28;20508;-69
2022/01/05 08:53:24;;;;;;;8.40;2.53;;;4.80;99.90;;;4.67;86.28;100020.81;5187721;28;20064;-70
2022/01/05 08:55:56;;;;;;;7.07;1.73;;;4.80;99.90;;;4.70;86.12;100020.97;5187396;28;20136;-70
2022/01/05 08:58:30;;;;;;;7.57;2.10;;;4.80;99.90;;;4.74;85.78;100022.84;5187656;28;20046;-69
2022/01/05 09:01:02;;;;;;;8.13;2.08;;;4.90;99.90;;;4.74;85.22;100025.44;5187606;28;20413;-69
2022/01/05 09:03:34;;;;;;;10.35;2.45;;;4.90;99.90;;;4.76;85.14;100035.03;5187525;28;20514;-70
2022/01/05 09:06:06;;;;;;;10.73;2.20;;;4.90;99.90;;;4.77;85.83;100035.91;5187117;28;20050;-70
2022/01/05 09:08:39;;;;;;;7.78;2.05;;;4.90;99.90;;;4.81;84.89;100041.28;5187369;28;20057;-70
2022/01/05 09:11:11;;;;;;;5.60;2.92;;;5.00;99.90;;;4.82;85.23;100045.63;5187246;28;20042;-69
2022/01/05 09:13:44;;;;;;;8.65;2.42;;;5.00;99.90;;;4.81;85.63;100043.84;5187039;28;20054;-70
2022/01/05 09:16:16;;;;;;;10.40;1.63;;;5.00;99.90;;;4.85;84.95;100042.31;5187321;28;20124;-70
2022/01/05 09:18:49;;;;;;;6.20;2.65;;;5.00;99.90;;;4.87;84.83;100046.72;5186933;28;20443;-70
2022/01/05 09:21:20;;;;;;;9.15;2.33;;;5.10;99.90;;;4.87;84.51;100051.88;5187282;28;20052;-69
2022/01/05 09:23:52;;;;;;;3.97;2.03;;;5.10;99.90;;;4.91;85.13;100037.44;5187083;28;20045;-70
2022/01/05 09:26:25;;;;;;;4.63;1.90;;;5.10;99.90;;;4.94;84.86;100034.97;5187306;28;20050;-70
2022/01/05 09:28:58;;;;;;;4.70;1.90;;;5.10;99.90;;;4.99;84.22;100041.22;5187032;28;20509;-70
2022/01/05 09:31:33;;;;;;;10.20;1.58;;;5.10;99.90;;;4.97;84.94;100048.03;5186924;28;20050;-69
2022/01/05 09:34:06;;;;;;;7.68;2.15;;;5.10;99.90;;;4.98;85.34;100044.63;5186804;28;20049;-70
2022/01/05 09:36:43;;;;;;;5.68;2.15;;;5.20;99.90;;;5.06;84.69;100058.75;5186992;28;20050;-69
2022/01/05 09:42:07;;;;;;;7.57;1.70;;;5.20;99.90;;;5.05;84.28;100054.41;5186665;28;20060;-70
2022/01/05 09:44:44;;;;;;;9.57;2.42;;;5.20;99.90;;;5.11;84.28;100046.94;5186304;28;20056;-69
2022/01/05 09:47:33;;;;;;;3.05;1.40;;;5.20;99.90;;;5.09;84.78;100064.09;5186837;28;20060;-70
2022/01/05 09:50:10;;;;;;;9.90;2.55;;;5.30;99.90;;;5.11;84.85;100053.81;5186381;28;20072;-71
2022/01/05 09:52:45;;;;;;;10.43;2.17;;;5.30;99.90;;;5.10;84.23;100055.53;5186734;28;20100;-72
2022/01/05 09:55:17;;;;;;;6.80;2.33;;;5.40;99.90;;;5.10;83.87;100063.25;5186483;28;20054;-71
2022/01/05 09:57:49;;;;;;;5.53;2.03;;;5.40;99.90;;;5.14;84.10;100065.16;5185484;28;20137;-71
2022/01/05 10:00:23;;;;;;;8.93;1.80;;;5.50;99.90;;;5.24;83.71;100052.66;5186590;28;20046;-70
2022/01/05 10:02:55;;;;;;;5.68;2.03;;;5.50;99.90;;;5.31;82.92;100054.69;5187053;28;20372;-70
2022/01/05 10:05:28;;;;;;;8.43;1.90;;;5.50;99.90;;;5.36;82.34;100066.13;5187086;28;20049;-70
2022/01/05 10:08:00;;;;;;;12.20;2.17;;;5.50;99.90;;;5.42;81.75;100064.69;5187082;28;20049;-70
2022/01/05 10:10:32;;;;;;;6.38;1.70;;;5.60;99.90;;;5.50;82.08;100065.03;5186332;28;20049;-70
2022/01/05 10:13:05;;;;;;;8.68;1.65;;;5.60;99.90;;;5.60;81.67;100049.06;5186447;28;20487;-69
2022/01/05 10:15:38;;;;;;;8.27;1.75;;;5.70;99.90;;;5.64;81.54;100063.91;5186470;28;20049;-70
2022/01/05 10:18:13;;;;;;;12.07;2.22;;;5.70;99.90;;;5.68;80.94;100065.81;5186705;28;20478;-70
2022/01/05 10:21:01;;;;;;;6.65;1.60;;;5.70;99.90;;;5.75;80.91;100061.78;5186590;28;20421;-70
2022/01/05 10:23:39;;;;;;;6.68;1.88;;;5.80;99.90;;;5.79;80.62;100070.53;5186163;28;20056;-69
2022/01/05 10:26:24;;;;;;;9.50;2.17;;;5.80;99.90;;;5.77;80.82;100054.97;5185884;28;20056;-70
2022/01/05 10:28:59;;;;;;;4.63;1.60;;;5.90;99.90;;;5.82;80.95;100034.47;5185891;28;20054;-71
2022/01/05 10:31:35;;;;;;;;;;;5.90;99.90;;;5.80;80.13;100047.31;5186044;28;20053;-69
2022/01/05 10:34:16;;;;;;;6.78;2.00;;;5.90;99.90;;;5.89;80.50;100049.44;5185877;28;19943;-70
2022/01/05 10:36:50;;;;;;;5.70;1.70;;;5.90;99.90;;;5.94;81.91;100050.53;5185640;28;20056;-68
2022/01/05 10:39:31;;;;;;;8.15;1.73;;;6.00;99.90;;;5.98;81.85;100057.59;5185867;28;20046;-70
2022/01/05 10:42:05;;;;;;;5.45;1.38;;;6.00;99.90;;;5.99;81.73;100059.34;5185544;28;20050;-71
2022/01/05 10:44:38;;;;;;;7.13;2.17;;;6.10;99.90;;;6.06;80.39;100066.53;5185436;28;20409;-70
2022/01/05 10:47:16;;;;;;;5.05;1.52;;;6.10;99.90;;;6.04;80.34;100072.50;5185794;28;20050;-70
2022/01/05 10:49:50;;;;;;;8.10;1.80;;;6.10;99.90;;;6.01;80.27;100074.97;5185734;28;20410;-70
2022/01/05 10:52:25;;;;;;;5.10;1.73;;;6.10;99.90;;;6.01;80.07;100073.25;5185389;28;20056;-70
2022/01/05 10:55:11;;;;;;;6.25;1.70;;;6.10;99.90;;;5.99;79.91;100067.13;5185529;28;20058;-70
2022/01/05 10:58:00;;;;;;;9.18;1.70;;;6.10;99.90;;;6.04;78.95;100088.88;5185746;28;20395;-70
2022/01/05 11:00:42;;;;;;;7.18;2.00;;;6.10;99.90;;;6.02;79.25;100080.19;5184835;28;20140;-70